Time;durP1;ratioP1;P1;durP2;ratioP2;P2;SDS_P1;SDS_P2;PMS_P1;PMS_P2;Temp;Humidity;BMP_temperature;BMP_pressure;BME280_temperature;BME280_humidity;BME280_pressure;Samples;Min_cycle;Max_cycle;Signal;HPM_P1;HPM_P2
2022/07/28 00:02:05;;;;;;;;;;;11.50;99.90;;;;;;4962527;28;19957;-61
2022/07/28 00:04:31;;;;;;;;;;;11.40;99.90;;;;;;4955295;28;19914;-60
2022/07/28 00:06:57;;;;;;;;;;;11.40;99.90;;;;;;4948392;28;19917;-60
2022/07/28 00:09:22;;;;;;;;;;;11.30;99.90;;;;;;4960592;28;19914;-60
2022/07/28 00:11:48;;;;;;;;;;;11.20;99.90;;;;;;4961607;28;19906;-61
2022/07/28 00:14:14;;;;;;;;;;;11.10;99.90;;;;;;4968170;28;19906;-60
2022/07/28 00:16:39;;;;;;;;;;;11.00;99.90;;;;;;4962123;28;19906;-61
2022/07/28 00:19:05;;;;;;;;;;;10.90;99.90;;;;;;4963805;28;20208;-61
2022/07/28 00:21:30;;;;;;;;;;;10.80;99.90;;;;;;4959862;28;20289;-60
2022/07/28 00:23:56;;;;;;;;;;;10.80;99.90;;;;;;4950637;28;19975;-61
2022/07/28 00:26:22;;;;;;;;;;;10.90;99.90;;;;;;4960446;28;20358;-60
2022/07/28 00:28:47;;;;;;;;;;;10.80;99.90;;;;;;4969000;28;20291;-60
2022/07/28 00:31:13;;;;;;;;;;;10.80;99.90;;;;;;4960385;28;19910;-61
2022/07/28 00:33:39;;;;;;;;;;;10.80;99.90;;;;;;4944846;28;20406;-61
2022/07/28 00:36:06;;;;;;;;;;;10.80;99.90;;;;;;4951254;28;19910;-61
2022/07/28 00:38:32;;;;;;;;;;;10.80;99.90;;;;;;4963391;28;19906;-61
2022/07/28 00:41:09;;;;;;;;;;;10.80;99.90;;;;;;4959378;28;20358;-61
2022/07/28 00:43:35;;;;;;;;;;;10.90;99.90;;;;;;4962716;28;19910;-60
2022/07/28 00:46:01;;;;;;;;;;;10.90;99.90;;;;;;4965956;28;19910;-61
2022/07/28 00:48:26;;;;;;;;;;;10.90;99.90;;;;;;4959780;28;19913;-60
2022/07/28 00:50:52;;;;;;;;;;;10.80;99.90;;;;;;4959489;28;19941;-61
2022/07/28 00:53:17;;;;;;;;;;;10.90;99.90;;;;;;4959996;28;19933;-61
2022/07/28 00:55:43;;;;;;;;;;;10.90;99.90;;;;;;4963544;28;19918;-60
2022/07/28 00:58:09;;;;;;;;;;;11.00;99.90;;;;;;4952927;28;20536;-61
2022/07/28 01:00:34;;;;;;;;;;;11.10;99.90;;;;;;4961808;28;19910;-61
2022/07/28 01:03:01;;;;;;;;;;;11.10;99.90;;;;;;4955841;28;19907;-61
2022/07/28 01:05:34;;;;;;;;;;;11.00;99.90;;;;;;4963112;28;19914;-60
2022/07/28 01:08:08;;;;;;;;;;;10.90;99.90;;;;;;4960281;28;19911;-60
2022/07/28 01:10:43;;;;;;;;;;;10.90;99.90;;;;;;4964322;28;20377;-61
2022/07/28 01:13:18;;;;;;;;;;;10.90;99.90;;;;;;4963796;28;19956;-61
2022/07/28 01:15:54;;;;;;;;;;;10.90;99.90;;;;;;4961253;28;20404;-60
2022/07/28 01:18:21;;;;;;;;;;;10.90;99.90;;;;;;4960944;28;19950;-61
2022/07/28 01:20:52;;;;;;;;;;;10.90;99.90;;;;;;4945892;28;19910;-60
2022/07/28 01:23:30;;;;;;;;;;;10.80;99.90;;;;;;4959314;28;19965;-61
2022/07/28 01:26:07;;;;;;;;;;;10.80;99.90;;;;;;4959558;28;19914;-60
2022/07/28 01:28:36;;;;;;;;;;;10.70;99.90;;;;;;4967304;28;19918;-61
2022/07/28 01:31:04;;;;;;;;;;;10.80;99.90;;;;;;4963333;28;19961;-61
2022/07/28 01:33:32;;;;;;;;;;;10.80;99.90;;;;;;4959560;28;20406;-60
2022/07/28 01:36:07;;;;;;;;;;;10.80;99.90;;;;;;4960638;28;19997;-61
2022/07/28 01:38:34;;;;;;;;;;;10.80;99.90;;;;;;4963684;28;19961;-61
2022/07/28 01:41:01;;;;;;;;;;;10.70;99.90;;;;;;4945987;28;19957;-61
2022/07/28 01:43:28;;;;;;;;;;;10.80;99.90;;;;;;4960702;28;19906;-61
2022/07/28 01:45:54;;;;;;;;;;;10.80;99.90;;;;;;4957298;28;19918;-61
2022/07/28 01:48:22;;;;;;;;;;;10.80;99.90;;;;;;4961005;28;19946;-61
2022/07/28 01:50:49;;;;;;;;;;;10.80;99.90;;;;;;4962757;28;19911;-60
2022/07/28 01:53:15;;;;;;;;;;;10.70;99.90;;;;;;4959976;28;19914;-60
2022/07/28 01:55:41;;;;;;;;;;;10.60;99.90;;;;;;4957576;28;20009;-60
2022/07/28 01:58:08;;;;;;;;;;;10.60;99.90;;;;;;4960853;28;19913;-61
2022/07/28 02:00:35;;;;;;;;;;;10.60;99.90;;;;;;4963839;28;20365;-61
2022/07/28 02:03:02;;;;;;;;;;;10.60;99.90;;;;;;4956903;28;19906;-61
2022/07/28 02:05:28;;;;;;;;;;;10.60;99.90;;;;;;4965775;28;20289;-61
2022/07/28 02:07:54;;;;;;;;;;;10.60;99.90;;;;;;4957593;28;19997;-61
2022/07/28 02:10:21;;;;;;;;;;;10.60;99.90;;;;;;4961909;28;19972;-61
2022/07/28 02:12:48;;;;;;;;;;;10.60;99.90;;;;;;4959004;28;19917;-62
2022/07/28 02:15:14;;;;;;;;;;;10.60;99.90;;;;;;4965643;28;19906;-62
2022/07/28 02:17:42;;;;;;;;;;;10.60;99.90;;;;;;4961159;28;19913;-62
2022/07/28 02:20:09;;;;;;;;;;;10.60;99.90;;;;;;4948770;28;20420;-62
2022/07/28 02:22:36;;;;;;;;;;;10.50;99.90;;;;;;4964412;28;20383;-62
2022/07/28 02:25:03;;;;;;;;;;;10.40;99.90;;;;;;4960961;28;20012;-62
2022/07/28 02:27:31;;;;;;;;;;;10.40;99.90;;;;;;4953789;28;19965;-62
2022/07/28 02:30:03;;;;;;;;;;;10.30;99.90;;;;;;4964542;28;20001;-62
2022/07/28 02:32:47;;;;;;;;;;;10.20;99.90;;;;;;4961341;28;19913;-62
2022/07/28 02:35:33;;;;;;;;;;;10.20;99.90;;;;;;4968447;28;20276;-62
2022/07/28 02:38:19;;;;;;;;;;;10.10;99.90;;;;;;4956789;28;19997;-62
2022/07/28 02:40:47;;;;;;;;;;;9.90;99.90;;;;;;4958578;28;20000;-62
2022/07/28 02:43:14;;;;;;;;;;;9.70;99.90;;;;;;4964438;28;19910;-62
2022/07/28 02:45:42;;;;;;;;;;;9.70;99.90;;;;;;4962188;28;19913;-62
2022/07/28 02:48:10;;;;;;;;;;;9.70;99.90;;;;;;4961752;28;19933;-62
2022/07/28 02:50:39;;;;;;;;;;;9.60;99.90;;;;;;4952005;28;19937;-62
2022/07/28 02:53:06;;;;;;;;;;;9.50;99.90;;;;;;4949177;28;20370;-62
2022/07/28 02:55:32;;;;;;;;;;;9.50;99.90;;;;;;4960776;28;19914;-62
2022/07/28 02:57:59;;;;;;;;;;;9.50;99.90;;;;;;4959560;28;19906;-62
2022/07/28 03:00:24;;;;;;;;;;;9.50;99.90;;;;;;4962457;28;19920;-62
2022/07/28 03:02:51;;;;;;;;;;;9.50;99.90;;;;;;4960814;28;19933;-62
2022/07/28 03:05:17;;;;;;;;;;;9.40;99.90;;;;;;4951455;28;19960;-62
2022/07/28 03:07:43;;;;;;;;;;;9.40;99.90;;;;;;4958964;28;20629;-62
2022/07/28 03:10:22;;;;;;;;;;;9.30;99.90;;;;;;4959070;28;19907;-62
2022/07/28 03:12:48;;;;;;;;;;;9.20;99.90;;;;;;4960281;28;19906;-62
2022/07/28 03:15:14;;;;;;;;;;;9.10;99.90;;;;;;4963176;28;19929;-62
2022/07/28 03:17:40;;;;;;;;;;;9.20;99.90;;;;;;4950134;28;20018;-62
2022/07/28 03:20:06;;;;;;;;;;;9.20;99.90;;;;;;4965203;28;19942;-62
2022/07/28 03:22:32;;;;;;;;;;;9.10;99.90;;;;;;4943392;28;19934;-62
2022/07/28 03:24:59;;;;;;;;;;;9.10;99.90;;;;;;4958129;28;20437;-62
2022/07/28 03:27:29;;;;;;;;;;;9.10;99.90;;;;;;4953447;28;19911;-62
2022/07/28 03:29:58;;;;;;;;;;;9.00;99.90;;;;;;4961481;28;20453;-62
2022/07/28 03:32:25;;;;;;;;;;;9.00;99.90;;;;;;4954827;28;19934;-62
2022/07/28 03:34:51;;;;;;;;;;;8.90;99.90;;;;;;4959816;28;19925;-62
2022/07/28 03:37:19;;;;;;;;;;;8.90;99.90;;;;;;4962638;28;19906;-62
2022/07/28 03:39:46;;;;;;;;;;;8.80;99.90;;;;;;4967008;28;19910;-62
2022/07/28 03:42:19;;;;;;;;;;;8.80;99.90;;;;;;4943459;29;20339;-62
2022/07/28 03:44:45;;;;;;;;;;;8.80;99.90;;;;;;4960615;28;19906;-62
2022/07/28 03:47:11;;;;;;;;;;;8.90;99.90;;;;;;4963790;28;19910;-62
2022/07/28 03:49:37;;;;;;;;;;;8.80;99.90;;;;;;4946734;29;19921;-62
2022/07/28 03:52:03;;;;;;;;;;;8.80;99.90;;;;;;4960405;28;19933;-62
2022/07/28 03:54:28;;;;;;;;;;;8.70;99.90;;;;;;4959907;28;19918;-62
2022/07/28 03:56:54;;;;;;;;;;;8.80;99.90;;;;;;4960204;28;19906;-62
2022/07/28 03:59:20;;;;;;;;;;;8.80;99.90;;;;;;4943033;28;20267;-62
2022/07/28 04:01:46;;;;;;;;;;;8.80;99.90;;;;;;4962119;28;19928;-62
2022/07/28 04:04:11;;;;;;;;;;;8.70;99.90;;;;;;4961204;28;19907;-62
2022/07/28 04:06:37;;;;;;;;;;;8.80;99.90;;;;;;4959909;28;19912;-62
2022/07/28 04:09:02;;;;;;;;;;;8.90;99.90;;;;;;4961547;28;19906;-62
2022/07/28 04:11:28;;;;;;;;;;;8.90;99.90;;;;;;4964408;28;19913;-62
2022/07/28 04:13:54;;;;;;;;;;;8.90;99.90;;;;;;4961806;28;19968;-62
2022/07/28 04:16:20;;;;;;;;;;;8.80;99.90;;;;;;4961949;28;19913;-62
2022/07/28 04:18:46;;;;;;;;;;;8.80;99.90;;;;;;4941484;28;19910;-62
2022/07/28 04:21:12;;;;;;;;;;;8.80;99.90;;;;;;4961662;28;19910;-62
2022/07/28 04:23:37;;;;;;;;;;;8.90;99.90;;;;;;4959748;28;19926;-62
2022/07/28 04:26:03;;;;;;;;;;;8.90;99.90;;;;;;4948055;28;19969;-62
2022/07/28 04:28:28;;;;;;;;;;;8.90;99.90;;;;;;4966082;28;20020;-62
2022/07/28 04:30:54;;;;;;;;;;;9.00;99.90;;;;;;4944757;28;20001;-62
2022/07/28 04:33:19;;;;;;;;;;;9.10;99.90;;;;;;4958279;28;20038;-62
2022/07/28 04:35:45;;;;;;;;;;;9.30;99.90;;;;;;4962987;28;20001;-62
2022/07/28 04:38:13;;;;;;;;;;;9.50;99.90;;;;;;4959774;28;19911;-62
2022/07/28 04:40:40;;;;;;;;;;;9.60;99.90;;;;;;4960605;28;19913;-63
2022/07/28 04:43:06;;;;;;;;;;;9.70;99.90;;;;;;4938354;28;19910;-62
2022/07/28 04:45:32;;;;;;;;;;;9.90;99.90;;;;;;4946394;28;19918;-62
2022/07/28 04:47:58;;;;;;;;;;;10.10;99.90;;;;;;4964062;28;20527;-62
2022/07/28 04:50:23;;;;;;;;;;;10.20;99.90;;;;;;4956036;28;20367;-62
2022/07/28 04:52:49;;;;;;;;;;;10.40;99.90;;;;;;4961251;28;19910;-62
2022/07/28 04:55:15;;;;;;;;;;;10.50;99.90;;;;;;4957595;28;20366;-62
2022/07/28 04:57:40;;;;;;;;;;;10.70;99.90;;;;;;4961762;28;20302;-62
2022/07/28 05:00:13;;;;;;;;;;;10.80;99.90;;;;;;4962222;28;20266;-62
2022/07/28 05:02:42;;;;;;;;;;;11.00;99.90;;;;;;4966530;28;19922;-62
2022/07/28 05:05:08;;;;;;;;;;;11.10;99.90;;;;;;4964452;28;20267;-62
2022/07/28 05:07:34;;;;;;;;;;;11.30;99.90;;;;;;4968234;28;19910;-62
2022/07/28 05:09:59;;;;;;;;;;;11.40;99.90;;;;;;4959126;28;19922;-63
2022/07/28 05:12:25;;;;;;;;;;;11.30;99.90;;;;;;4963712;28;20177;-62
2022/07/28 05:14:50;;;;;;;;;;;11.30;99.90;;;;;;4960368;28;19910;-62
2022/07/28 05:17:16;;;;;;;;;;;11.40;99.90;;;;;;4962452;28;19961;-62
2022/07/28 05:19:42;;;;;;;;;;;11.40;99.90;;;;;;4969084;28;19910;-62
2022/07/28 05:22:07;;;;;;;;;;;11.40;99.90;;;;;;4971650;28;19917;-62
2022/07/28 05:24:33;;;;;;;;;;;11.40;99.90;;;;;;4948535;28;20017;-61
2022/07/28 05:26:58;;;;;;;;;;;11.30;99.90;;;;;;4943541;28;19933;-61
2022/07/28 05:29:24;;;;;;;;;;;11.40;99.90;;;;;;4964022;28;20381;-61
2022/07/28 05:31:49;;;;;;;;;;;11.50;99.90;;;;;;4959191;28;19964;-61
2022/07/28 05:34:15;;;;;;;;;;;11.60;99.90;;;;;;4961055;28;20357;-60
2022/07/28 05:36:41;;;;;;;;;;;11.70;99.90;;;;;;4964624;28;20226;-61
2022/07/28 05:39:06;;;;;;;;;;;11.70;99.90;;;;;;4958127;28;19954;-60
2022/07/28 05:41:32;;;;;;;;;;;11.80;99.90;;;;;;4963106;28;20274;-62
2022/07/28 05:43:59;;;;;;;;;;;11.90;99.90;;;;;;4959468;28;19945;-62
2022/07/28 05:46:25;;;;;;;;;;;12.00;99.90;;;;;;4962744;28;20362;-62
2022/07/28 05:48:51;;;;;;;;;;;12.20;99.90;;;;;;4948371;28;20005;-59
2022/07/28 05:51:17;;;;;;;;;;;12.30;99.90;;;;;;4952408;28;19946;-62
2022/07/28 05:53:42;;;;;;;;;;;12.40;99.90;;;;;;4962178;28;20400;-62
2022/07/28 05:56:08;;;;;;;;;;;12.50;99.90;;;;;;4956935;28;19949;-59
2022/07/28 05:58:33;;;;;;;;;;;12.60;99.90;;;;;;4959363;28;19915;-61
2022/07/28 06:01:00;;;;;;;;;;;12.70;99.90;;;;;;4935494;28;20027;-61
2022/07/28 06:03:25;;;;;;;;;;;12.70;99.90;;;;;;4954807;28;19913;-61
2022/07/28 06:05:53;;;;;;;;;;;12.90;99.90;;;;;;4935500;28;19907;-60
2022/07/28 06:08:18;;;;;;;;;;;13.00;99.90;;;;;;4962551;28;20267;-61
2022/07/28 06:11:00;;;;;;;;;;;13.20;99.90;;;;;;4950829;28;19920;-60
2022/07/28 06:13:29;;;;;;;;;;;13.40;99.90;;;;;;4960818;28;19906;-60
2022/07/28 06:15:55;;;;;;;;;;;13.50;99.90;;;;;;4964100;28;19913;-60
2022/07/28 06:18:23;;;;;;;;;;;13.50;99.90;;;;;;4961519;28;19910;-60
2022/07/28 06:20:49;;;;;;;;;;;13.50;99.90;;;;;;4967308;28;20353;-59
2022/07/28 06:23:15;;;;;;;;;;;13.50;99.90;;;;;;4945254;28;20053;-60
2022/07/28 06:25:41;;;;;;;;;;;13.50;99.90;;;;;;4948376;28;19910;-60
2022/07/28 06:28:06;;;;;;;;;;;13.60;99.90;;;;;;4947847;28;19910;-61
2022/07/28 06:30:32;;;;;;;;;;;13.60;99.90;;;;;;4946406;28;19910;-60
2022/07/28 06:32:58;;;;;;;;;;;13.60;99.90;;;;;;4961848;28;20008;-59
2022/07/28 06:35:23;;;;;;;;;;;13.70;99.90;;;;;;4954833;28;19977;-59
2022/07/28 06:37:49;;;;;;;;;;;13.70;99.90;;;;;;4938823;29;20020;-60
2022/07/28 06:40:16;;;;;;;;;;;13.80;99.90;;;;;;4949243;28;20350;-60
2022/07/28 06:42:42;;;;;;;;;;;13.90;99.90;;;;;;4958287;28;19938;-61
2022/07/28 06:45:08;;;;;;;;;;;14.00;99.90;;;;;;4949519;28;19910;-60
2022/07/28 06:47:33;;;;;;;;;;;14.20;99.90;;;;;;4955871;28;20342;-60
2022/07/28 06:49:59;;;;;;;;;;;14.40;99.90;;;;;;4962163;28;19911;-61
2022/07/28 06:52:25;;;;;;;;;;;14.60;99.90;;;;;;4956081;28;19911;-60
2022/07/28 06:54:51;;;;;;;;;;;14.80;99.90;;;;;;4960210;28;19910;-61
2022/07/28 06:57:20;;;;;;;;;;;15.00;99.90;;;;;;4956497;28;20354;-60
2022/07/28 06:59:46;;;;;;;;;;;15.20;99.90;;;;;;4945309;29;20397;-60
2022/07/28 07:02:12;;;;;;;;;;;15.30;99.90;;;;;;4965116;28;19978;-60
2022/07/28 07:04:37;;;;;;;;;;;15.50;99.90;;;;;;4968614;28;19968;-61
2022/07/28 07:07:03;;;;;;;;;;;15.50;99.90;;;;;;4960303;28;19945;-60
2022/07/28 07:09:28;;;;;;;;;;;15.50;99.90;;;;;;4941786;28;19929;-60
2022/07/28 07:11:54;;;;;;;;;;;15.50;99.90;;;;;;4963193;28;19962;-60
2022/07/28 07:14:20;;;;;;;;;;;15.60;99.90;;;;;;4962805;28;20385;-61
2022/07/28 07:16:45;;;;;;;;;;;15.70;99.90;;;;;;4960026;28;19906;-61
2022/07/28 07:19:11;;;;;;;;;;;15.90;99.90;;;;;;4961377;28;19907;-61
2022/07/28 07:21:36;;;;;;;;;;;16.00;99.90;;;;;;4957923;28;19910;-59
2022/07/28 07:24:02;;;;;;;;;;;16.20;99.90;;;;;;4945662;28;20317;-60
2022/07/28 07:26:28;;;;;;;;;;;16.40;99.90;;;;;;4960977;28;19914;-60
2022/07/28 07:28:53;;;;;;;;;;;16.70;99.90;;;;;;4964837;28;19910;-60
2022/07/28 07:31:19;;;;;;;;;;;16.80;99.90;;;;;;4959731;28;19905;-60
2022/07/28 07:33:44;;;;;;;;;;;16.80;99.90;;;;;;4960567;28;20305;-59
2022/07/28 07:36:10;;;;;;;;;;;16.70;99.90;;;;;;4960938;28;20453;-60
2022/07/28 07:38:37;;;;;;;;;;;16.70;99.90;;;;;;4956255;28;20008;-60
2022/07/28 07:41:03;;;;;;;;;;;16.90;99.90;;;;;;4954331;28;19922;-60
2022/07/28 07:43:28;;;;;;;;;;;17.00;99.90;;;;;;4956077;28;19906;-60
2022/07/28 07:45:54;;;;;;;;;;;17.20;99.90;;;;;;4943682;29;19914;-60
2022/07/28 07:48:19;;;;;;;;;;;17.30;99.90;;;;;;4958109;28;20425;-60
2022/07/28 07:50:45;;;;;;;;;;;17.40;99.90;;;;;;4955987;28;19957;-60
2022/07/28 07:53:10;;;;;;;;;;;17.70;99.90;;;;;;4956525;28;19910;-60
2022/07/28 07:55:36;;;;;;;;;;;17.70;99.90;;;;;;4959147;28;20341;-60
2022/07/28 07:58:02;;;;;;;;;;;17.80;99.90;;;;;;4956651;28;19910;-60
2022/07/28 08:00:27;;;;;;;;;;;17.80;99.90;;;;;;4958497;28;20326;-60
2022/07/28 08:02:53;;;;;;;;;;;18.00;99.90;;;;;;4951250;28;20423;-60
2022/07/28 08:05:18;;;;;;;;;;;17.90;99.90;;;;;;4958921;28;20264;-60
2022/07/28 08:07:44;;;;;;;;;;;17.80;99.90;;;;;;4953245;28;20267;-60
2022/07/28 08:10:10;;;;;;;;;;;17.80;99.90;;;;;;4955822;28;19997;-61
2022/07/28 08:12:35;;;;;;;;;;;17.90;99.90;;;;;;4957450;28;19907;-60
2022/07/28 08:15:01;;;;;;;;;;;18.00;99.90;;;;;;4957088;28;19910;-60
2022/07/28 08:17:26;;;;;;;;;;;18.20;99.90;;;;;;4956886;28;19906;-60
2022/07/28 08:19:52;;;;;;;;;;;18.50;99.90;;;;;;4954645;28;20140;-61
2022/07/28 08:22:18;;;;;;;;;;;18.70;99.90;;;;;;4957312;28;19910;-60
2022/07/28 08:24:43;;;;;;;;;;;19.00;99.90;;;;;;4958025;28;19933;-60
2022/07/28 08:27:09;;;;;;;;;;;19.30;99.90;;;;;;4962997;28;19907;-60
2022/07/28 08:29:34;;;;;;;;;;;19.70;99.90;;;;;;4963945;28;19906;-60
2022/07/28 08:32:02;;;;;;;;;;;19.60;99.90;;;;;;4964476;28;20397;-61
2022/07/28 08:34:28;;;;;;;;;;;19.80;99.90;;;;;;4968014;28;20337;-60
2022/07/28 08:36:54;;;;;;;;;;;20.60;99.90;;;;;;4944924;28;19922;-60
2022/07/28 08:39:19;;;;;;;;;;;21.20;98.70;;;;;;4960437;28;19910;-60
2022/07/28 08:41:45;;;;;;;;;;;21.50;98.10;;;;;;4952377;28;19910;-60
2022/07/28 08:44:13;;;;;;;;;;;21.20;96.90;;;;;;4966741;28;19906;-60
2022/07/28 08:46:40;;;;;;;;;;;21.00;97.40;;;;;;4966048;28;20378;-61
2022/07/28 08:49:08;;;;;;;;;;;21.00;97.80;;;;;;4964547;28;19960;-60
2022/07/28 08:51:34;;;;;;;;;;;21.10;96.80;;;;;;4947241;28;19941;-59
2022/07/28 08:54:01;;;;;;;;;;;20.80;97.40;;;;;;4965920;28;19910;-60
2022/07/28 08:56:26;;;;;;;;;;;21.50;96.80;;;;;;4961284;28;20061;-60
2022/07/28 08:58:52;;;;;;;;;;;21.80;96.10;;;;;;4964916;28;20751;-60
2022/07/28 09:01:18;;;;;;;;;;;21.90;94.50;;;;;;4953024;28;20001;-60
2022/07/28 09:03:43;;;;;;;;;;;21.60;95.50;;;;;;4949079;28;19937;-60
2022/07/28 09:06:09;;;;;;;;;;;21.90;94.70;;;;;;4967900;28;19910;-60
2022/07/28 09:08:35;;;;;;;;;;;21.80;93.60;;;;;;4967923;28;20263;-60
2022/07/28 09:11:01;;;;;;;;;;;22.00;93.70;;;;;;4968852;28;19989;-60
2022/07/28 09:13:26;;;;;;;;;;;22.40;93.70;;;;;;4966962;28;19923;-60
2022/07/28 09:15:52;;;;;;;;;;;22.20;93.70;;;;;;4969334;28;19906;-60
2022/07/28 09:18:17;;;;;;;;;;;22.80;93.10;;;;;;4969338;28;20420;-60
2022/07/28 09:20:43;;;;;;;;;;;23.30;91.10;;;;;;4946288;28;20001;-61
2022/07/28 09:23:09;;;;;;;;;;;22.90;91.10;;;;;;4967932;28;19940;-60
2022/07/28 09:25:35;;;;;;;;;;;22.10;92.40;;;;;;4945102;28;20379;-61
2022/07/28 09:28:10;;;;;;;;;;;22.70;91.40;;;;;;4963990;28;19906;-59
2022/07/28 09:30:39;;;;;;;;;;;22.30;91.30;;;;;;4957670;28;20289;-60
2022/07/28 09:33:13;;;;;;;;;;;22.50;91.40;;;;;;4965411;28;19938;-60
2022/07/28 09:35:55;;;;;;;;;;;22.70;92.00;;;;;;4963964;28;20004;-61
2022/07/28 09:38:21;;;;;;;;;;;23.60;90.90;;;;;;4960814;28;19929;-60
2022/07/28 09:41:00;;;;;;;;;;;23.70;87.70;;;;;;4942946;28;19961;-61
2022/07/28 09:43:32;;;;;;;;;;;24.10;88.40;;;;;;4961418;28;19906;-61
2022/07/28 09:46:08;;;;;;;;;;;24.50;84.80;;;;;;4959815;28;19949;-61
2022/07/28 09:48:34;;;;;;;;;;;24.80;85.70;;;;;;4959902;28;19917;-60
2022/07/28 09:51:11;;;;;;;;;;;24.30;84.40;;;;;;4957515;28;19921;-60
2022/07/28 09:53:37;;;;;;;;;;;24.20;85.40;;;;;;4963417;28;19916;-61
2022/07/28 09:56:03;;;;;;;;;;;24.40;84.20;;;;;;4962112;28;19926;-61
2022/07/28 09:58:28;;;;;;;;;;;24.60;83.20;;;;;;4966650;28;19913;-61
2022/07/28 10:01:06;;;;;;;;;;;24.40;84.80;;;;;;4961747;28;20318;-61
2022/07/28 10:03:32;;;;;;;;;;;25.10;82.80;;;;;;4965121;28;19956;-61
2022/07/28 10:06:03;;;;;;;;;;;25.00;82.40;;;;;;4966270;28;20362;-61
2022/07/28 10:08:48;;;;;;;;;;;25.30;80.40;;;;;;4969411;28;19977;-59
2022/07/28 10:11:15;;;;;;;;;;;24.30;81.50;;;;;;4964953;28;20178;-59
2022/07/28 10:13:50;;;;;;;;;;;24.30;83.00;;;;;;4965295;28;20389;-60
2022/07/28 10:16:17;;;;;;;;;;;24.50;80.70;;;;;;4964205;28;19906;-60
2022/07/28 10:18:43;;;;;;;;;;;25.20;80.40;;;;;;4965573;28;20375;-60
2022/07/28 10:21:12;;;;;;;;;;;25.10;80.10;;;;;;4970047;28;19956;-61
2022/07/28 10:23:41;;;;;;;;;;;25.50;80.80;;;;;;4944211;28;20017;-60
2022/07/28 10:26:09;;;;;;;;;;;25.90;78.60;;;;;;4963237;28;20289;-61
2022/07/28 10:28:36;;;;;;;;;;;25.80;79.50;;;;;;4966054;28;19910;-60
2022/07/28 10:31:03;;;;;;;;;;;25.70;76.30;;;;;;4965496;28;19921;-60
2022/07/28 10:33:32;;;;;;;;;;;25.50;77.40;;;;;;4965471;28;19913;-60
2022/07/28 10:35:58;;;;;;;;;;;25.70;76.60;;;;;;4948778;29;19913;-61
2022/07/28 10:38:31;;;;;;;;;;;25.40;77.50;;;;;;4956829;28;19906;-61
2022/07/28 10:40:57;;;;;;;;;;;25.50;79.10;;;;;;4956798;28;19914;-61
2022/07/28 10:43:25;;;;;;;;;;;26.60;77.40;;;;;;4947836;28;20277;-61
2022/07/28 10:45:50;;;;;;;;;;;26.70;75.10;;;;;;4937533;28;20005;-61
2022/07/28 10:48:16;;;;;;;;;;;26.10;75.60;;;;;;4960873;28;20357;-61
2022/07/28 10:50:43;;;;;;;;;;;26.00;75.80;;;;;;4957152;28;19907;-61
2022/07/28 10:53:10;;;;;;;;;;;26.10;75.60;;;;;;4951923;28;19953;-62
2022/07/28 10:55:43;;;;;;;;;;;26.10;74.70;;;;;;4957249;28;19910;-62
2022/07/28 10:58:17;;;;;;;;;;;26.60;76.40;;;;;;4953571;28;19961;-62
2022/07/28 11:00:47;;;;;;;;;;;26.40;76.10;;;;;;4961463;28;19910;-62
2022/07/28 11:03:32;;;;;;;;;;;26.10;74.00;;;;;;4953102;28;19910;-62
2022/07/28 11:05:58;;;;;;;;;;;26.20;73.30;;;;;;4962780;28;19921;-62
2022/07/28 11:08:27;;;;;;;;;;;26.60;75.10;;;;;;4958190;28;19914;-62
2022/07/28 11:10:53;;;;;;;;;;;27.10;72.40;;;;;;4958692;28;19910;-62
2022/07/28 11:13:29;;;;;;;;;;;26.40;73.40;;;;;;4961951;28;19910;-62
2022/07/28 11:15:55;;;;;;;;;;;27.20;72.60;;;;;;4963923;28;19913;-62
2022/07/28 11:18:21;;;;;;;;;;;27.50;73.10;;;;;;4960641;28;19910;-62
2022/07/28 11:20:55;;;;;;;;;;;27.70;70.80;;;;;;4963626;28;19924;-62
2022/07/28 11:23:39;;;;;;;;;;;27.30;70.70;;;;;;4963926;28;19922;-62
2022/07/28 11:26:23;;;;;;;;;;;26.50;71.10;;;;;;4963078;28;20332;-62
2022/07/28 11:29:07;;;;;;;;;;;26.60;73.80;;;;;;4963539;28;19911;-62
2022/07/28 11:31:47;;;;;;;;;;;27.90;72.30;;;;;;4958180;28;20396;-62
2022/07/28 11:34:14;;;;;;;;;;;28.60;70.00;;;;;;4964285;28;19956;-62
2022/07/28 11:37:01;;;;;;;;;;;28.20;69.10;;;;;;4958701;28;19910;-62
2022/07/28 11:39:27;;;;;;;;;;;27.90;68.90;;;;;;4959152;28;19911;-62
2022/07/28 11:41:52;;;;;;;;;;;27.40;70.10;;;;;;4959360;28;19929;-62
2022/07/28 11:44:25;;;;;;;;;;;28.30;70.60;;;;;;4957003;28;19958;-62
2022/07/28 11:46:50;;;;;;;;;;;28.10;68.10;;;;;;4957107;28;20278;-62
2022/07/28 11:49:19;;;;;;;;;;;27.30;70.10;;;;;;4960232;28;19953;-62
2022/07/28 11:52:03;;;;;;;;;;;27.00;69.70;;;;;;4957393;28;19926;-62
2022/07/28 11:54:29;;;;;;;;;;;27.00;70.30;;;;;;4956881;28;20343;-62
2022/07/28 11:56:58;;;;;;;;;;;27.90;70.20;;;;;;4957668;28;19912;-62
2022/07/28 11:59:23;;;;;;;;;;;28.30;69.50;;;;;;4955662;28;19906;-62
2022/07/28 12:01:52;;;;;;;;;;;28.70;67.50;;;;;;4959414;28;19910;-62
2022/07/28 12:04:18;;;;;;;;;;;28.10;68.10;;;;;;4957666;28;19910;-62
2022/07/28 12:06:48;;;;;;;;;;;28.30;69.50;;;;;;4964242;28;19914;-62
2022/07/28 12:09:14;;;;;;;;;;;28.50;66.90;;;;;;4963822;28;20677;-62
2022/07/28 12:11:40;;;;;;;;;;;28.60;68.80;;;;;;4961143;28;19906;-62
2022/07/28 12:14:15;;;;;;;;;;;29.20;69.10;;;;;;4968624;28;19961;-62
2022/07/28 12:16:42;;;;;;;;;;;30.30;67.10;;;;;;4963136;28;19910;-63
2022/07/28 12:19:07;;;;;;;;;;;29.20;65.10;;;;;;4962986;28;19911;-62
2022/07/28 12:21:42;;;;;;;;;;;29.40;65.60;;;;;;4958313;28;20216;-62
2022/07/28 12:24:13;;;;;;;;;;;29.70;66.60;;;;;;4961254;28;19924;-62
2022/07/28 12:26:39;;;;;;;;;;;30.20;67.00;;;;;;4962726;28;19911;-62
2022/07/28 12:29:05;;;;;;;;;;;29.80;66.10;;;;;;4968391;28;19907;-62
2022/07/28 12:31:34;;;;;;;;;;;30.20;65.10;;;;;;4961920;28;19913;-62
2022/07/28 12:34:08;;;;;;;;;;;30.50;64.50;;;;;;4959792;28;20247;-62
2022/07/28 12:36:34;;;;;;;;;;;30.40;65.00;;;;;;4960947;28;19914;-63
2022/07/28 12:39:00;;;;;;;;;;;30.90;63.30;;;;;;4959613;28;19937;-61
2022/07/28 12:41:30;;;;;;;;;;;29.70;64.00;;;;;;4964138;28;19963;-61
2022/07/28 12:43:56;;;;;;;;;;;29.60;65.20;;;;;;4965906;28;19906;-61
2022/07/28 12:46:23;;;;;;;;;;;29.80;65.50;;;;;;4950683;28;19907;-61
2022/07/28 12:48:48;;;;;;;;;;;29.70;66.20;;;;;;4970316;28;19909;-61
2022/07/28 12:51:33;;;;;;;;;;;29.60;66.10;;;;;;4966614;28;19918;-61
2022/07/28 12:53:58;;;;;;;;;;;30.20;64.10;;;;;;4964982;28;19910;-61
2022/07/28 12:56:24;;;;;;;;;;;29.70;64.50;;;;;;4964800;28;19918;-62
2022/07/28 12:59:09;;;;;;;;;;;30.20;64.30;;;;;;4961911;28;19907;-62
2022/07/28 13:01:53;;;;;;;;;;;29.50;65.00;;;;;;4969130;28;20388;-62
2022/07/28 13:04:39;;;;;;;;;;;28.80;64.60;;;;;;4969671;28;20358;-62
2022/07/28 13:07:08;;;;;;;;;;;28.20;65.60;;;;;;4967929;28;19914;-62
2022/07/28 13:09:35;;;;;;;;;;;28.70;64.70;;;;;;4969408;28;19948;-62
2022/07/28 13:12:00;;;;;;;;;;;28.80;65.10;;;;;;4971481;28;19933;-62
2022/07/28 13:14:42;;;;;;;;;;;28.80;64.50;;;;;;4966142;28;19913;-62
2022/07/28 13:17:08;;;;;;;;;;;28.90;64.10;;;;;;4964949;28;20425;-62
2022/07/28 13:19:33;;;;;;;;;;;29.10;65.30;;;;;;4965356;28;19914;-62
2022/07/28 13:21:59;;;;;;;;;;;29.50;66.00;;;;;;4968392;28;19913;-62
2022/07/28 13:24:25;;;;;;;;;;;30.50;65.10;;;;;;4971241;28;19922;-62
2022/07/28 13:26:50;;;;;;;;;;;30.90;63.30;;;;;;4966361;28;19913;-62
2022/07/28 13:29:16;;;;;;;;;;;31.10;63.20;;;;;;4972589;28;19914;-62
2022/07/28 13:31:42;;;;;;;;;;;31.20;62.80;;;;;;4962044;28;19954;-62
2022/07/28 13:34:08;;;;;;;;;;;30.80;61.80;;;;;;4968574;28;19965;-62
2022/07/28 13:36:34;;;;;;;;;;;30.90;63.80;;;;;;4968092;28;19957;-62
2022/07/28 13:39:00;;;;;;;;;;;32.70;60.30;;;;;;4957676;28;19910;-62
2022/07/28 13:41:26;;;;;;;;;;;32.10;61.10;;;;;;4963588;28;19910;-62
2022/07/28 13:43:53;;;;;;;;;;;32.30;61.30;;;;;;4963698;28;19981;-62
2022/07/28 13:46:19;;;;;;;;;;;31.40;60.70;;;;;;4938072;28;19910;-62
2022/07/28 13:48:44;;;;;;;;;;;31.60;62.50;;;;;;4966945;28;19920;-63
2022/07/28 13:51:11;;;;;;;;;;;31.80;60.10;;;;;;4964567;28;19913;-62
2022/07/28 13:53:36;;;;;;;;;;;31.40;61.10;;;;;;4965460;28;19937;-63
2022/07/28 13:56:03;;;;;;;;;;;31.00;61.40;;;;;;4962827;28;19993;-62
2022/07/28 13:58:28;;;;;;;;;;;30.50;61.60;;;;;;4969516;28;19906;-63
2022/07/28 14:00:54;;;;;;;;;;;30.70;62.40;;;;;;4969155;28;19921;-63
2022/07/28 14:03:20;;;;;;;;;;;30.00;62.50;;;;;;4951945;28;20017;-61
2022/07/28 14:05:45;;;;;;;;;;;29.20;63.10;;;;;;4968910;28;19913;-61
2022/07/28 14:08:17;;;;;;;;;;;28.60;63.10;;;;;;4949274;28;19910;-61
2022/07/28 14:10:43;;;;;;;;;;;27.50;64.90;;;;;;4954528;28;19910;-61
2022/07/28 14:13:08;;;;;;;;;;;28.30;64.80;;;;;;4965986;28;20281;-61
2022/07/28 14:15:34;;;;;;;;;;;28.50;65.20;;;;;;4966745;28;19910;-61
2022/07/28 14:17:59;;;;;;;;;;;28.10;64.90;;;;;;4950891;29;20382;-61
2022/07/28 14:20:25;;;;;;;;;;;28.20;65.40;;;;;;4966432;28;19910;-61
2022/07/28 14:22:50;;;;;;;;;;;29.20;64.90;;;;;;4968292;28;19937;-61